Terminal Aerodrome Forecast
Issued by NWS Wakefield, VA

Home | Current Version | Previous Version | Text Only | Print | Product List | Glossary On
Versions: 1 2 3 4 5 6 7 8 9 10 11 12 13 14 15 16 17 18 19 20 21 22 23 24 25 26 27 28 29 30 31 32 33 34 35 36 37 38
797
FTUS41 KAKQ 230931 AAE
TAFSBY
TAF AMD
KSBY 230931Z 2310/2406 06018G30KT 3SM -SHRA BR OVC006
      TEMPO 2310/2313 1SM SHRA BR OVC002
     FM231300 07023G34KT 2SM SHRA BR OVC003
     FM231800 08018G28KT 4SM -SHRA BR OVC004
     FM232100 06013G20KT 5SM BR OVC005
     FM240200 01010KT 6SM -SHRA OVC005=

USA.gov is the U.S. government's official web portal to all federal, state and local government web resources and services.